Time;durP1;ratioP1;P1;durP2;ratioP2;P2;SDS_P1;SDS_P2;PMS_P1;PMS_P2;Temp;Humidity;BMP_temperature;BMP_pressure;BME280_temperature;BME280_humidity;BME280_pressure;Samples;Min_cycle;Max_cycle;Signal;HPM_P1;HPM_P2
2023/04/01 00:00:53;;;;;;;25.70;13.13;;;;;;;-141.97;64.05;47484.47;4919430;29;20185;-89
2023/04/01 00:03:20;;;;;;;21.30;13.17;;;;;;;-141.97;65.15;47551.75;4937742;29;20257;-89
2023/04/01 00:05:46;;;;;;;19.80;12.90;;;;;;;-141.97;65.61;47542.16;4920973;29;20191;-89
2023/04/01 00:08:11;;;;;;;22.63;13.20;;;;;;;-141.97;64.49;47484.47;4937989;29;20173;-89
2023/04/01 00:10:37;;;;;;;23.80;13.73;;;;;;;-141.97;63.94;47426.81;4937667;29;20647;-89
2023/04/01 00:13:02;;;;;;;23.83;14.50;;;;;;;-141.97;64.04;47665.16;4938139;29;20162;-89
2023/04/01 00:15:28;;;;;;;29.10;15.63;;;;;;;-141.97;63.76;47490.25;4937688;29;20533;-88
2023/04/01 00:17:54;;;;;;;28.83;14.93;;;;;;;-141.97;63.39;47555.59;4937419;29;20249;-89
2023/04/01 00:20:20;;;;;;;26.90;14.37;;;;;;;-141.97;63.67;47557.53;4937587;29;20201;-91
2023/04/01 00:22:45;;;;;;;26.73;13.93;;;;;;;-141.97;64.83;47649.78;4937754;29;20174;-90
2023/04/01 00:25:11;;;;;;;23.90;13.40;;;;;;;-141.97;66.31;47413.38;4920570;29;20237;-91
2023/04/01 00:27:36;;;;;;;22.07;13.33;;;;;;;-141.97;67.62;47513.31;4920511;29;20185;-90
2023/04/01 00:30:02;;;;;;;22.87;13.37;;;;;;;-141.97;67.43;47682.47;4937776;29;20232;-90
2023/04/01 00:32:28;;;;;;;23.70;14.10;;;;;;;-141.97;66.86;47436.44;4937341;29;20182;-87
2023/04/01 00:34:54;;;;;;;23.83;13.20;;;;;;;-141.97;66.71;47488.31;4959356;29;20203;-90
2023/04/01 00:37:20;;;;;;;23.13;13.13;;;;;;;-141.97;67.05;47599.81;4961573;29;20220;-89
2023/04/01 00:39:46;;;;;;;21.70;13.87;;;;;;;-141.97;67.12;47482.56;4948165;29;20189;-89
2023/04/01 00:42:13;;;;;;;25.77;13.53;;;;;;;-141.97;67.27;47515.22;4937322;29;20173;-89
2023/04/01 00:44:39;;;;;;;25.00;14.10;;;;;;;-141.97;66.42;47553.69;4920473;29;20185;-89
2023/04/01 00:47:05;;;;;;;22.10;13.70;;;;;;;-141.97;65.88;47536.38;4937766;29;20181;-89
2023/04/01 00:49:36;;;;;;;21.17;12.40;;;;;;;-141.97;65.53;47636.31;4919881;29;20181;-88
2023/04/01 00:52:04;;;;;;;22.90;12.50;;;;;;;-141.97;65.11;47565.22;4919823;29;20189;-88
2023/04/01 00:54:30;;;;;;;23.47;12.97;;;;;;;-141.97;65.94;47519.06;4920293;29;20201;-89
2023/04/01 00:57:01;;;;;;;24.03;13.10;;;;;;;-141.97;65.47;47561.38;4937440;29;20170;-89
2023/04/01 00:59:32;;;;;;;23.43;13.53;;;;;;;-141.97;65.45;47565.22;4919944;29;20184;-88
2023/04/01 01:01:57;;;;;;;19.90;13.00;;;;;;;-141.97;64.71;47678.63;4936878;29;20642;-89
2023/04/01 01:04:26;;;;;;;21.63;13.40;;;;;;;-141.97;65.73;47449.88;4937091;29;20169;-89
2023/04/01 01:06:56;;;;;;;21.90;13.20;;;;;;;-141.97;66.02;47570.97;4936694;29;20252;-88
2023/04/01 01:09:37;;;;;;;22.47;13.33;;;;;;;-141.97;66.60;47588.28;4919722;29;20179;-89
2023/04/01 01:12:26;;;;;;;24.17;13.50;;;;;;;-141.97;66.44;47553.69;4936712;29;20177;-90
2023/04/01 01:15:00;;;;;;;25.50;14.27;;;;;;;-141.97;65.86;47647.84;4937267;29;20292;-89
2023/04/01 01:17:30;;;;;;;22.17;13.47;;;;;;;-141.97;65.35;47538.28;4920195;29;20167;-90
2023/04/01 01:20:42;;;;;;;32.77;16.73;;;;;;;-141.97;65.09;47484.47;4921758;29;20638;-89
2023/04/01 01:23:14;;;;;;;32.50;18.50;;;;;;;-141.97;64.12;47572.91;4942437;29;20209;-87
2023/04/01 01:25:57;;;;;;;27.27;15.27;;;;;;;-141.97;64.92;47567.13;4939727;29;20265;-89
2023/04/01 01:28:32;;;;;;;25.93;14.40;;;;;;;-141.97;64.77;47580.59;4937901;29;20197;-88
2023/04/01 01:31:50;;;;;;;22.10;14.30;;;;;;;-141.97;63.59;47542.16;4941803;29;20170;-89
2023/04/01 01:34:17;;;;;;;22.10;13.10;;;;;;;-141.97;63.18;47549.84;4793201;30;20183;-91
2023/04/01 01:36:45;;;;;;;22.40;12.33;;;;;;;-141.97;63.04;47676.69;4773016;30;20279;-89
2023/04/01 01:39:13;;;;;;;19.87;11.53;;;;;;;-141.97;64.12;47471.03;4790317;29;20198;-88
2023/04/01 01:41:42;;;;;;;20.23;12.13;;;;;;;-141.97;63.57;47678.63;4804649;29;20361;-89
2023/04/01 01:44:11;;;;;;;22.13;12.47;;;;;;;-141.97;63.25;47513.31;4804357;29;20280;-89
2023/04/01 01:46:39;;;;;;;23.20;12.73;;;;;;;-141.97;64.82;47563.28;4804845;29;20202;-89
2023/04/01 01:49:10;;;;;;;22.03;12.23;;;;;;;-141.97;66.13;47499.84;4805226;29;20740;-90
2023/04/01 01:51:36;;;;;;;25.37;13.43;;;;;;;-141.97;66.57;47572.91;4804914;29;20202;-90
2023/04/01 01:54:01;;;;;;;24.57;12.77;;;;;;;-141.97;66.12;47603.66;4805549;29;20211;-89
2023/04/01 01:56:29;;;;;;;19.27;11.40;;;;;;;-141.97;65.30;47574.81;4805051;29;20218;-88
2023/04/01 01:59:03;;;;;;;25.43;12.17;;;;;;;-141.97;65.28;47522.91;4803902;29;20277;-89
2023/04/01 02:01:33;;;;;;;19.57;11.33;;;;;;;-141.97;64.87;47572.91;4789892;29;20258;-90
2023/04/01 02:03:59;;;;;;;24.23;12.07;;;;;;;-141.97;65.18;47521.00;4804563;29;20627;-90
2023/04/01 02:06:28;;;;;;;17.93;11.53;;;;;;;-141.97;65.31;47694.00;4816927;29;20190;-88
2023/04/01 02:09:03;;;;;;;20.97;11.40;;;;;;;-141.97;65.58;47542.16;4804943;29;20179;-90
2023/04/01 02:11:31;;;;;;;18.57;11.90;;;;;;;-141.97;65.58;47557.53;4900676;29;20228;-90
2023/04/01 02:14:06;;;;;;;24.80;13.00;;;;;;;-141.97;65.47;47553.69;4935637;29;20173;-91
2023/04/01 02:16:49;;;;;;;26.33;12.70;;;;;;;-141.97;67.00;47559.44;4935737;29;20752;-89
2023/04/01 02:19:22;;;;;;;22.00;12.40;;;;;;;-141.97;67.01;47561.38;4919174;29;20538;-91
2023/04/01 02:21:51;;;;;;;20.97;12.43;;;;;;;-141.97;67.99;47524.84;4918713;29;20182;-92
2023/04/01 02:24:22;;;;;;;22.17;12.77;;;;;;;-141.97;68.27;47492.16;4918913;29;20173;-89
2023/04/01 02:26:50;;;;;;;24.10;14.50;;;;;;;-141.97;68.31;47521.00;4936067;29;20169;-89
2023/04/01 02:29:17;;;;;;;23.80;14.13;;;;;;;-141.97;67.68;47665.16;4936341;29;20177;-89
2023/04/01 02:31:43;;;;;;;25.77;14.00;;;;;;;-141.97;67.89;47486.41;4920794;29;20225;-90
2023/04/01 02:34:09;;;;;;;26.03;14.90;;;;;;;-141.97;67.57;47501.78;4951600;29;20224;-90
2023/04/01 02:36:36;;;;;;;25.77;15.60;;;;;;;-141.97;67.87;47644.00;4942188;29;20245;-91
2023/04/01 02:39:04;;;;;;;25.03;15.27;;;;;;;-141.97;68.04;47561.38;4939553;29;20260;-89
2023/04/01 02:41:30;;;;;;;25.43;15.23;;;;;;;-141.97;67.61;47632.47;4904471;29;20201;-90
2023/04/01 02:43:57;;;;;;;24.57;14.80;;;;;;;-141.97;67.03;47532.53;4916987;29;20188;-90
2023/04/01 02:46:22;;;;;;;32.13;15.83;;;;;;;-141.97;67.13;47524.84;4900039;29;20186;-90
2023/04/01 02:48:48;;;;;;;34.60;19.03;;;;;;;-141.97;66.98;47692.06;4917373;29;20242;-89
2023/04/01 02:51:13;;;;;;;57.30;33.27;;;;;;;-141.97;66.57;47499.84;4898975;29;20261;-88
2023/04/01 02:53:39;;;;;;;32.70;20.00;;;;;;;-141.97;66.01;47503.69;4916274;29;20284;-89
2023/04/01 02:56:04;;;;;;;43.47;25.00;;;;;;;-141.97;66.42;47457.56;4915915;29;20765;-89
2023/04/01 02:58:30;;;;;;;39.97;23.10;;;;;;;-141.97;66.65;47415.28;4916222;29;20170;-89
2023/04/01 03:00:55;;;;;;;40.37;22.73;;;;;;;-141.97;66.68;47542.16;4923697;29;20237;-89
2023/04/01 03:03:21;;;;;;;38.60;21.83;;;;;;;-141.97;67.15;47672.84;4931810;29;20182;-90
2023/04/01 03:05:46;;;;;;;36.33;22.00;;;;;;;-141.97;66.84;47544.06;4916696;29;20178;-90
2023/04/01 03:08:11;;;;;;;33.63;18.90;;;;;;;-141.97;66.83;47444.13;4916608;29;20276;-90
2023/04/01 03:10:37;;;;;;;28.00;16.27;;;;;;;-141.97;65.91;47588.28;4917770;29;20236;-89
2023/04/01 03:13:02;;;;;;;32.20;18.50;;;;;;;-141.97;66.65;47640.16;4933561;29;20193;-90
2023/04/01 03:15:28;;;;;;;29.43;16.87;;;;;;;-141.97;67.03;47480.63;4934858;29;20205;-89
2023/04/01 03:17:53;;;;;;;29.30;17.50;;;;;;;-141.97;67.15;47649.78;4934581;29;20646;-90
2023/04/01 03:20:19;;;;;;;28.27;16.73;;;;;;;-141.97;67.06;47542.16;4918168;29;20603;-89
2023/04/01 03:22:45;;;;;;;30.30;17.10;;;;;;;-141.97;68.02;47574.81;4917129;29;20738;-89
2023/04/01 03:25:11;;;;;;;33.97;19.63;;;;;;;-141.97;67.92;47540.22;4934527;29;20558;-89
2023/04/01 03:27:36;;;;;;;30.77;18.07;;;;;;;-141.97;67.78;47396.06;4934543;29;20165;-90
2023/04/01 03:30:03;;;;;;;30.67;17.87;;;;;;;-141.97;67.84;47605.56;4934635;29;20178;-89
2023/04/01 03:32:29;;;;;;;28.63;17.87;;;;;;;-141.97;67.87;47472.94;4917720;29;20201;-89
2023/04/01 03:34:54;;;;;;;34.73;18.63;;;;;;;-141.97;67.56;47451.81;4937256;29;20280;-90
2023/04/01 03:37:20;;;;;;;33.23;19.37;;;;;;;-141.97;67.35;47501.78;4941759;29;20260;-89
2023/04/01 03:39:45;;;;;;;31.13;17.87;;;;;;;-141.97;67.84;47672.84;4921935;29;20261;-90
2023/04/01 03:42:11;;;;;;;31.50;18.17;;;;;;;-141.97;67.84;47642.09;4921481;29;20204;-90
2023/04/01 03:44:37;;;;;;;31.37;18.43;;;;;;;-141.97;67.96;47565.22;4938280;29;20232;-90
2023/04/01 03:47:03;;;;;;;28.27;17.00;;;;;;;-141.97;67.70;47559.44;4931598;29;20620;-90
2023/04/01 03:49:29;;;;;;;32.53;17.93;;;;;;;-141.97;67.13;47507.53;4919306;29;20201;-90
2023/04/01 03:51:54;;;;;;;38.70;17.27;;;;;;;-141.97;67.29;47601.72;4919367;29;20651;-89
2023/04/01 03:54:20;;;;;;;32.37;17.90;;;;;;;-141.97;67.43;47594.03;4902766;29;20337;-89
2023/04/01 03:56:46;;;;;;;35.10;18.10;;;;;;;-141.97;68.12;47582.50;4902321;29;20174;-90
2023/04/01 03:59:12;;;;;;;35.57;18.50;;;;;;;-141.97;68.71;47586.34;4932161;29;20197;-89
2023/04/01 04:01:37;;;;;;;34.87;18.17;;;;;;;-141.97;69.25;47457.56;4924842;29;20175;-89
2023/04/01 04:04:03;;;;;;;37.13;19.03;;;;;;;-141.97;69.62;47496.00;4932368;29;20180;-88
2023/04/01 04:06:29;;;;;;;35.07;18.63;;;;;;;-141.97;69.29;47588.28;4922801;29;20181;-89
2023/04/01 04:08:54;;;;;;;31.67;17.87;;;;;;;-141.97;69.05;47546.00;4901884;29;20616;-89
2023/04/01 04:11:21;;;;;;;30.87;16.53;;;;;;;-141.97;69.14;47574.81;4919942;29;20161;-89
2023/04/01 04:13:50;;;;;;;23.33;15.57;;;;;;;-141.97;69.17;47576.75;4919516;29;20163;-89
2023/04/01 04:16:16;;;;;;;27.07;15.50;;;;;;;-141.97;69.54;47601.72;4919617;29;20204;-90
2023/04/01 04:18:42;;;;;;;30.73;17.33;;;;;;;-141.97;68.50;47449.88;4919347;29;20174;-90
2023/04/01 04:21:12;;;;;;;26.47;14.57;;;;;;;-141.97;68.09;47472.94;4929699;29;20270;-89
2023/04/01 04:23:38;;;;;;;27.53;14.70;;;;;;;-141.97;68.11;47669.00;4929735;29;20178;-91
2023/04/01 04:26:06;;;;;;;24.47;14.47;;;;;;;-141.97;68.35;47624.78;4917680;29;20189;-90
2023/04/01 04:28:32;;;;;;;27.80;16.37;;;;;;;-141.97;67.69;47469.09;4901902;29;20217;-89
2023/04/01 04:30:58;;;;;;;32.33;17.20;;;;;;;-141.97;67.30;47496.00;4901427;29;20186;-90
2023/04/01 04:33:24;;;;;;;40.93;20.07;;;;;;;-141.97;66.93;47549.84;4904181;29;20659;-90
2023/04/01 04:35:50;;;;;;;77.67;35.87;;;;;;;-141.97;66.42;47511.38;4926019;29;20189;-90
2023/04/01 04:38:15;;;;;;;234.33;106.87;;;;;;;-141.97;64.54;47540.22;4925579;29;20241;-89
2023/04/01 04:40:42;;;;;;;148.43;69.73;;;;;;;-141.97;63.50;47565.22;4921690;29;20635;-91
2023/04/01 04:43:11;;;;;;;53.80;25.80;;;;;;;-141.97;62.63;47482.56;4919004;29;20200;-90
2023/04/01 04:45:37;;;;;;;47.70;25.60;;;;;;;-141.97;62.29;47672.84;4918408;29;20177;-93
2023/04/01 04:48:02;;;;;;;38.53;20.77;;;;;;;-141.97;61.75;47521.00;4916557;29;20170;-90
2023/04/01 04:50:28;;;;;;;72.80;39.03;;;;;;;-141.97;61.76;47630.56;4917623;29;20187;-90
2023/04/01 04:52:53;;;;;;;81.87;37.67;;;;;;;-141.97;62.07;47467.19;4903292;29;20182;-92
2023/04/01 04:55:19;;;;;;;81.77;36.40;;;;;;;-141.97;62.72;47415.28;4922273;29;20310;-91
2023/04/01 04:57:45;;;;;;;50.27;25.37;;;;;;;-141.97;62.89;47645.94;4902487;29;20250;-92
2023/04/01 05:00:11;;;;;;;41.17;21.53;;;;;;;-141.97;62.45;47367.25;4902381;29;20245;-92
2023/04/01 05:02:36;;;;;;;38.13;19.87;;;;;;;-141.97;62.92;47670.91;4901754;29;20256;-91
2023/04/01 05:05:02;;;;;;;36.33;21.30;;;;;;;-141.97;63.75;47446.03;4918477;29;20639;-91
2023/04/01 05:07:27;;;;;;;37.03;19.10;;;;;;;-141.97;63.29;47695.91;4919669;29;20182;-91
2023/04/01 05:09:53;;;;;;;35.80;19.50;;;;;;;-141.97;62.94;47549.84;4925690;29;20170;-91
2023/04/01 05:12:18;;;;;;;37.20;18.67;;;;;;;-141.97;63.21;47584.44;4920275;29;20182;-91
2023/04/01 05:14:44;;;;;;;51.17;25.33;;;;;;;-141.97;63.24;47649.78;4919601;29;20197;-90
2023/04/01 05:17:11;;;;;;;37.80;20.03;;;;;;;-141.97;63.10;47405.69;4919800;29;20178;-90
2023/04/01 05:19:37;;;;;;;37.37;19.17;;;;;;;-141.97;63.97;47613.25;4918534;29;20655;-90
2023/04/01 05:22:02;;;;;;;46.47;21.83;;;;;;;-141.97;63.62;47647.84;4927190;29;20169;-90
2023/04/01 05:24:28;;;;;;;57.53;32.17;;;;;;;-141.97;64.17;47718.97;4941398;29;20174;-89
2023/04/01 05:26:53;;;;;;;45.83;23.00;;;;;;;-141.97;64.65;47678.63;4923585;29;20178;-90
2023/04/01 05:29:19;;;;;;;51.63;29.03;;;;;;;-141.97;64.60;47713.22;4903599;29;20178;-89
2023/04/01 05:31:44;;;;;;;35.50;18.10;;;;;;;-141.97;64.28;47680.53;4901204;29;20310;-90
2023/04/01 05:34:10;;;;;;;58.77;35.37;;;;;;;-141.97;63.79;47440.28;4900953;29;20185;-91
2023/04/01 05:36:36;;;;;;;70.03;38.00;;;;;;;-141.97;63.96;47469.09;4903442;29;20241;-90
2023/04/01 05:39:01;;;;;;;167.83;60.97;;;;;;;-141.97;64.80;47661.31;4922169;29;20185;-92
2023/04/01 05:41:27;;;;;;;39.33;20.70;;;;;;;-141.97;65.67;47645.94;4906417;29;20197;-91
2023/04/01 05:43:52;;;;;;;39.10;19.87;;;;;;;-141.97;65.41;47649.78;4921721;29;20630;-91
2023/04/01 05:46:18;;;;;;;37.07;19.60;;;;;;;-141.97;65.52;47538.28;4925705;29;20194;-90
2023/04/01 05:48:43;;;;;;;55.90;31.63;;;;;;;-141.97;65.73;47688.22;4921010;29;20178;-89
2023/04/01 05:51:13;;;;;;;40.07;22.23;;;;;;;-141.97;65.22;47582.50;4924487;29;20174;-90
2023/04/01 05:53:39;;;;;;;41.17;20.37;;;;;;;-141.97;65.58;47678.63;4907591;29;20193;-91
2023/04/01 05:56:05;;;;;;;44.50;23.57;;;;;;;-141.97;65.50;47403.75;4927544;29;20201;-91
2023/04/01 05:58:31;;;;;;;58.70;31.93;;;;;;;-141.97;65.15;47522.91;4910565;29;20181;-90
2023/04/01 06:01:07;;;;;;;37.87;17.67;;;;;;;-141.97;64.71;47472.94;4909641;29;20170;-91
2023/04/01 06:03:33;;;;;;;43.53;19.20;;;;;;;-141.97;64.34;47567.13;4908043;29;20202;-93
2023/04/01 06:06:00;;;;;;;43.07;20.23;;;;;;;-141.97;64.17;47680.53;4922905;29;20159;-92
2023/04/01 06:08:27;;;;;;;38.57;19.60;;;;;;;-141.97;63.54;47334.56;4906162;29;20170;-91
2023/04/01 06:11:21;;;;;;;31.90;17.00;;;;;;;-141.97;62.63;47603.66;4902463;29;20353;-90
2023/04/01 06:13:47;;;;;;;23.00;14.23;;;;;;;-141.97;61.94;47557.53;4902690;29;20193;-89
2023/04/01 06:16:43;;;;;;;27.90;15.37;;;;;;;-141.97;61.84;47590.19;4902275;29;20198;-89
2023/04/01 06:19:27;;;;;;;28.87;15.23;;;;;;;-141.97;60.84;47563.28;4919207;29;20658;-91
2023/04/01 06:22:06;;;;;;;32.63;17.17;;;;;;;-141.97;60.49;47584.44;4902873;29;20211;-89
2023/04/01 06:25:05;;;;;;;33.83;17.73;;;;;;;-141.97;60.46;47565.22;4918319;29;20170;-89
2023/04/01 06:27:49;;;;;;;35.30;17.13;;;;;;;-141.97;60.30;47632.47;4903421;29;20177;-91
2023/04/01 06:30:53;;;;;;;23.57;14.00;;;;;;;-141.97;60.81;47576.75;4900657;29;20174;-90
2023/04/01 06:33:50;;;;;;;22.87;13.67;;;;;;;-141.97;60.65;47588.28;4862507;29;20202;-90
2023/04/01 06:36:37;;;;;;;24.17;13.10;;;;;;;-141.97;59.51;47563.28;4825220;29;20233;-89
2023/04/01 06:39:08;;;;;;;23.23;13.27;;;;;;;-141.97;60.26;47569.06;4842154;29;20252;-91
2023/04/01 06:41:40;;;;;;;26.17;14.13;;;;;;;-141.97;60.77;47595.97;4813990;29;20201;-90
2023/04/01 06:44:28;;;;;;;24.87;11.70;;;;;;;-141.97;60.20;47582.50;4815150;29;20246;-91
2023/04/01 06:46:59;;;;;;;20.67;12.03;;;;;;;-141.97;61.11;47703.59;4829586;29;20233;-90
2023/04/01 06:49:36;;;;;;;21.80;12.83;;;;;;;-141.97;60.97;47620.94;4808721;29;20823;-91
2023/04/01 06:52:11;;;;;;;23.50;12.87;;;;;;;-141.97;60.43;47603.66;4809268;29;20601;-90
2023/04/01 06:55:17;;;;;;;23.07;13.00;;;;;;;-141.97;59.41;47607.50;4823193;29;20207;-90
2023/04/01 06:57:47;;;;;;;25.27;13.70;;;;;;;-141.97;58.70;47703.59;4822639;29;20181;-90
2023/04/01 07:00:31;;;;;;;27.57;12.67;;;;;;;-141.97;58.59;47580.59;4823402;29;20200;-92
2023/04/01 07:03:10;;;;;;;21.10;12.50;;;;;;;-141.97;58.59;47572.91;4824432;29;20222;-89
2023/04/01 07:05:35;;;;;;;21.77;11.53;;;;;;;-141.97;57.79;47555.59;4826473;29;20217;-90
2023/04/01 07:08:10;;;;;;;18.03;10.77;;;;;;;-141.97;57.66;47588.28;4827386;29;20188;-91
2023/04/01 07:10:45;;;;;;;19.13;11.13;;;;;;;-141.97;57.27;47503.69;4830527;29;20648;-90
2023/04/01 07:13:24;;;;;;;18.83;10.53;;;;;;;-141.97;56.54;47563.28;4887303;29;20291;-91
2023/04/01 07:15:59;;;;;;;20.03;11.57;;;;;;;-141.97;55.50;47496.00;4934528;29;20249;-90
2023/04/01 07:18:34;;;;;;;18.47;10.67;;;;;;;-141.97;54.45;47438.34;4936334;29;20165;-90
2023/04/01 07:21:01;;;;;;;18.27;11.00;;;;;;;-141.97;54.49;47599.81;4918895;29;20180;-91
2023/04/01 07:23:37;;;;;;;19.80;11.00;;;;;;;-141.97;54.31;47438.34;4919363;29;20618;-91
2023/04/01 07:26:20;;;;;;;18.30;10.50;;;;;;;-141.97;54.98;47465.25;4922491;29;20249;-89
2023/04/01 07:28:46;;;;;;;23.83;10.63;;;;;;;-141.97;54.02;47440.28;4900207;29;20178;-90
2023/04/01 07:31:17;;;;;;;17.80;10.60;;;;;;;-141.97;56.16;47594.03;4898870;29;20252;-90
2023/04/01 07:33:42;;;;;;;16.17;9.90;;;;;;;-141.97;55.63;47572.91;4899872;29;20201;-89
2023/04/01 07:36:26;;;;;;;19.80;9.40;;;;;;;-141.97;54.66;47597.88;4904697;29;20567;-89
2023/04/01 07:39:27;;;;;;;19.73;10.27;;;;;;;-141.97;55.48;47584.44;4923917;29;20170;-90
2023/04/01 07:42:06;;;;;;;16.87;10.30;;;;;;;-141.97;54.29;47724.75;4830491;29;20197;-91
2023/04/01 07:45:00;;;;;;;15.37;10.07;;;;;;;-141.97;53.79;47680.53;4843574;29;20173;-90
2023/04/01 07:50:24;;;;;;;15.00;10.13;;;;;;;-141.97;54.46;47582.50;5062526;23;20239;-91
2023/04/01 07:53:20;;;;;;;14.13;8.90;;;;;;;-141.97;53.65;47720.91;4933145;29;20189;-90
2023/04/01 07:55:54;;;;;;;15.07;9.23;;;;;;;-141.97;53.19;47576.75;4922104;29;20797;-89
2023/04/01 07:58:42;;;;;;;14.63;8.83;;;;;;;-141.97;54.33;47576.75;4919540;29;20276;-91
2023/04/01 08:01:25;;;;;;;18.47;9.67;;;;;;;-141.97;56.55;47565.22;4920723;29;20224;-90
2023/04/01 08:04:12;;;;;;;16.87;9.90;;;;;;;-141.97;57.66;47574.81;4924532;29;20193;-91
2023/04/01 08:06:46;;;;;;;16.40;10.00;;;;;;;-141.97;58.67;47588.28;4922791;29;20745;-91
2023/04/01 08:09:35;;;;;;;17.20;10.30;;;;;;;-141.97;57.87;47582.50;4921119;29;20182;-92
2023/04/01 08:12:12;;;;;;;17.20;10.83;;;;;;;-141.97;58.00;47561.38;4919334;29;20181;-89
2023/04/01 08:15:01;;;;;;;23.23;10.90;;;;;;;-141.97;58.33;47584.44;4935993;29;20197;-91
2023/04/01 08:17:46;;;;;;;18.57;10.30;;;;;;;-141.97;57.38;47561.38;4919037;29;20229;-91
2023/04/01 08:20:18;;;;;;;14.70;10.50;;;;;;;-141.97;57.43;47582.50;4940461;29;20189;-90
2023/04/01 08:22:51;;;;;;;19.43;10.97;;;;;;;-141.97;56.68;47503.69;4924384;29;20649;-89
2023/04/01 08:25:24;;;;;;;19.80;12.17;;;;;;;-141.97;57.05;47551.75;4927934;29;20209;-90
2023/04/01 08:28:22;;;;;;;16.17;10.53;;;;;;;-141.97;56.75;47576.75;4928733;29;20638;-90
2023/04/01 08:30:53;;;;;;;21.03;11.00;;;;;;;-141.97;56.81;47557.53;4948306;29;20193;-90
2023/04/01 08:33:27;;;;;;;20.10;11.20;;;;;;;-141.97;56.39;47586.34;4938480;29;20169;-90
2023/04/01 08:36:05;;;;;;;19.90;10.80;;;;;;;-141.97;56.26;47557.53;4923119;29;20201;-92
2023/04/01 08:38:54;;;;;;;16.17;10.40;;;;;;;-141.97;56.11;47592.13;4928368;29;20181;-90
2023/04/01 08:41:38;;;;;;;22.70;10.50;;;;;;;-141.97;56.85;47597.88;4932779;29;20288;-90
2023/04/01 08:44:50;;;;;;;17.23;11.03;;;;;;;-141.97;55.72;47567.13;4930052;29;20177;-91
2023/04/01 08:47:50;;;;;;;16.33;9.57;;;;;;;-141.97;55.43;47471.03;4866523;29;20269;-90
2023/04/01 08:50:41;;;;;;;16.23;9.50;;;;;;;-141.97;53.82;47494.09;4885758;29;20692;-92
2023/04/01 08:53:24;;;;;;;18.33;10.47;;;;;;;-141.97;52.92;47570.97;4875262;29;20198;-90
2023/04/01 08:56:26;;;;;;;16.70;10.20;;;;;;;-141.97;51.55;47582.50;4873669;29;20223;-91
2023/04/01 08:58:59;;;;;;;16.43;9.63;;;;;;;-141.97;51.09;47542.16;4881692;29;20227;-89
2023/04/01 09:01:49;;;;;;;16.57;9.57;;;;;;;-141.97;50.65;47563.28;4864725;29;20199;-89
2023/04/01 09:04:24;;;;;;;17.83;10.00;;;;;;;-141.97;49.74;47551.75;4868387;29;20180;-91
2023/04/01 09:06:52;;;;;;;16.17;9.87;;;;;;;-141.97;49.94;47595.97;4866792;29;20170;-89
2023/04/01 09:09:26;;;;;;;16.90;10.00;;;;;;;-141.97;50.64;47594.03;4865241;29;20195;-90
2023/04/01 09:12:17;;;;;;;18.20;10.07;;;;;;;-141.97;50.87;47557.53;4866871;29;20178;-90
2023/04/01 09:15:14;;;;;;;17.50;10.17;;;;;;;-141.97;49.92;47615.19;4868571;29;20302;-89
2023/04/01 09:17:46;;;;;;;18.20;10.40;;;;;;;-141.97;49.48;47613.25;4847731;29;20196;-89
2023/04/01 09:20:50;;;;;;;16.90;9.80;;;;;;;-141.97;49.97;47592.13;4850663;29;20268;-89
2023/04/01 09:23:33;;;;;;;15.27;10.50;;;;;;;-141.97;49.80;47538.28;4807881;29;20438;-90
2023/04/01 09:26:17;;;;;;;15.80;9.77;;;;;;;-141.97;50.21;47509.47;4809300;29;20300;-89
2023/04/01 09:29:14;;;;;;;21.77;10.73;;;;;;;-141.97;49.74;47586.34;4805241;29;20325;-89
2023/04/01 09:31:57;;;;;;;15.70;9.87;;;;;;;-141.97;48.57;47567.13;4790875;29;20219;-90
2023/04/01 09:34:55;;;;;;;17.03;10.20;;;;;;;-141.97;49.19;47592.13;4823097;29;20221;-88
2023/04/01 09:37:24;;;;;;;18.90;10.63;;;;;;;-141.97;49.11;47546.00;4818282;29;20182;-88
2023/04/01 09:40:01;;;;;;;17.83;10.27;;;;;;;-141.97;48.98;47540.22;4809257;29;20289;-88
2023/04/01 09:42:55;;;;;;;16.17;10.30;;;;;;;-141.97;49.14;47557.53;4796217;29;20178;-88
2023/04/01 09:45:52;;;;;;;13.83;10.13;;;;;;;-141.97;49.16;47717.06;4796780;29;20174;-89
2023/04/01 09:48:54;;;;;;;15.80;10.40;;;;;;;-141.97;48.73;47584.44;4816811;29;20702;-89
2023/04/01 09:51:44;;;;;;;15.73;10.03;;;;;;;-141.97;47.89;47570.97;4789843;29;20200;-89
2023/04/01 09:54:12;;;;;;;16.43;10.00;;;;;;;-141.97;47.28;47576.75;4832538;29;20209;-87
2023/04/01 09:56:38;;;;;;;17.97;9.83;;;;;;;-141.97;46.94;47574.81;4829690;29;20205;-88
2023/04/01 09:59:41;;;;;;;19.87;10.77;;;;;;;-141.97;46.80;47567.13;4835576;29;20185;-88
2023/04/01 10:02:20;;;;;;;15.53;10.43;;;;;;;-141.97;46.95;47453.72;4949586;29;20169;-88
2023/04/01 10:05:08;;;;;;;16.67;10.97;;;;;;;-141.97;46.47;47542.16;4934672;29;20154;-90
2023/04/01 10:07:33;;;;;;;17.83;10.63;;;;;;;-141.97;46.46;47557.53;4934123;29;20185;-88
2023/04/01 10:10:26;;;;;;;15.40;9.87;;;;;;;-141.97;46.88;47532.53;4939192;29;20161;-88
2023/04/01 10:13:36;;;;;;;14.67;9.70;;;;;;;-141.97;46.53;47580.59;4942099;29;20161;-89
2023/04/01 10:16:34;;;;;;;17.00;10.33;;;;;;;-141.97;46.41;47557.53;4959998;29;20204;-87
2023/04/01 10:19:18;;;;;;;18.30;10.73;;;;;;;-141.97;46.44;47572.91;4943108;29;20251;-88
2023/04/01 10:22:20;;;;;;;17.90;10.73;;;;;;;-141.97;46.17;47524.84;4922928;29;20174;-88
2023/04/01 10:25:11;;;;;;;20.30;10.63;;;;;;;-141.97;45.87;47563.28;4920139;29;20200;-89
2023/04/01 10:27:42;;;;;;;19.10;10.90;;;;;;;-141.97;45.43;47542.16;4936328;29;20193;-89
2023/04/01 10:30:40;;;;;;;16.50;11.07;;;;;;;-141.97;46.27;47480.63;4940229;29;20571;-88
2023/04/01 10:33:14;;;;;;;18.93;11.80;;;;;;;-141.97;45.98;47582.50;4879217;29;20218;-88
2023/04/01 10:36:17;;;;;;;19.33;10.37;;;;;;;-141.97;46.30;47557.53;4880036;29;20253;-88
2023/04/01 10:39:00;;;;;;;18.90;11.13;;;;;;;-141.97;46.42;47553.69;4884680;29;20218;-88
2023/04/01 10:41:59;;;;;;;20.13;12.10;;;;;;;-141.97;46.57;47524.84;4879265;29;20178;-87
2023/04/01 10:44:56;;;;;;;14.27;10.17;;;;;;;-141.97;46.13;47569.06;4861180;29;20221;-87
2023/04/01 10:47:40;;;;;;;14.97;10.03;;;;;;;-141.97;46.47;47538.28;4882269;29;20186;-88
2023/04/01 10:50:41;;;;;;;17.30;10.10;;;;;;;-141.97;46.23;47555.59;4879795;29;20251;-87
2023/04/01 10:53:12;;;;;;;28.90;15.67;;;;;;;-141.97;45.71;47563.28;4874840;29;20250;-88
2023/04/01 10:56:22;;;;;;;20.70;11.87;;;;;;;-141.97;44.45;47546.00;4851612;29;20610;-89
2023/04/01 10:59:02;;;;;;;17.43;10.33;;;;;;;-141.97;44.02;47542.16;4826263;29;20197;-88
2023/04/01 11:02:00;;;;;;;17.83;10.30;;;;;;;-141.97;43.70;47549.84;4828266;29;20216;-88
2023/04/01 11:04:34;;;;;;;17.60;11.53;;;;;;;-141.97;43.75;47553.69;4808891;29;20307;-87
2023/04/01 11:07:27;;;;;;;15.83;9.83;;;;;;;-141.97;43.26;47538.28;4825763;29;20189;-88
2023/04/01 11:10:30;;;;;;;15.30;10.30;;;;;;;-141.97;42.31;47538.28;4818293;29;20197;-87
2023/04/01 11:13:32;;;;;;;18.10;10.40;;;;;;;-141.97;41.81;47565.22;4839052;29;20191;-88
2023/04/01 11:16:23;;;;;;;13.00;9.27;;;;;;;-141.97;42.21;47553.69;4860273;29;20219;-88
2023/04/01 11:19:18;;;;;;;16.63;9.87;;;;;;;-141.97;42.04;47540.22;4844982;29;20180;-88
2023/04/01 11:22:10;;;;;;;16.07;9.90;;;;;;;-141.97;41.99;47515.22;4841862;29;20623;-89
2023/04/01 11:24:57;;;;;;;15.80;10.50;;;;;;;-141.97;42.37;47532.53;4862853;29;20563;-89
2023/04/01 11:27:40;;;;;;;17.47;9.93;;;;;;;-141.97;41.73;47521.00;4867219;29;20184;-90
2023/04/01 11:30:06;;;;;;;16.07;10.27;;;;;;;-141.97;41.67;47551.75;4845443;29;20283;-87
2023/04/01 11:32:43;;;;;;;19.00;10.03;;;;;;;-141.97;40.75;47532.53;4858902;29;20255;-87
2023/04/01 11:35:17;;;;;;;16.27;10.30;;;;;;;-141.97;39.91;47555.59;4875509;29;20584;-87
2023/04/01 11:38:18;;;;;;;20.87;9.83;;;;;;;-141.97;39.34;47497.94;4911381;29;20181;-87
2023/04/01 11:41:16;;;;;;;15.87;9.40;;;;;;;-141.97;39.09;47521.00;4859936;29;20199;-89